Time;durP1;ratioP1;P1;durP2;ratioP2;P2;SDS_P1;SDS_P2;PMS_P1;PMS_P2;Temp;Humidity;BMP_temperature;BMP_pressure;BME280_temperature;BME280_humidity;BME280_pressure;Samples;Min_cycle;Max_cycle;Signal;HPM_P1;HPM_P2
2023/06/01 00:00:06;;;;;;;1.33;0.30;;;;;;;15.77;100.00;95494.63;5112342;28;20799;-59
2023/06/01 00:02:35;;;;;;;0.50;0.40;;;;;;;15.82;100.00;95494.53;5111903;28;20874;-59
2023/06/01 00:05:04;;;;;;;0.70;0.70;;;;;;;15.93;100.00;95492.44;5111693;28;20439;-59
2023/06/01 00:07:32;;;;;;;0.40;0.30;;;;;;;15.53;100.00;95494.03;5111238;28;20862;-59
2023/06/01 00:10:01;;;;;;;0.40;0.20;;;;;;;15.06;100.00;95486.28;5112328;28;20454;-59
2023/06/01 00:12:30;;;;;;;0.40;0.20;;;;;;;15.18;100.00;95490.06;5114985;28;20496;-59
2023/06/01 00:14:59;;;;;;;0.40;0.30;;;;;;;15.53;100.00;95496.69;5115371;28;20443;-59
2023/06/01 00:17:28;;;;;;;0.60;0.40;;;;;;;15.74;100.00;95486.38;5115340;28;20478;-59
2023/06/01 00:20:00;;;;;;;0.40;0.40;;;;;;;15.99;100.00;95483.22;5115288;28;20959;-59
2023/06/01 00:22:34;;;;;;;0.40;0.30;;;;;;;15.91;100.00;95485.81;5115749;28;20436;-59
2023/06/01 00:25:02;;;;;;;0.70;0.30;;;;;;;15.83;100.00;95495.31;5115685;28;20522;-59
2023/06/01 00:27:32;;;;;;;0.60;0.30;;;;;;;15.49;100.00;95494.88;5115763;28;20460;-59
2023/06/01 00:30:00;;;;;;;0.60;0.60;;;;;;;15.73;100.00;95498.19;5115742;28;20435;-59
2023/06/01 00:32:29;;;;;;;0.40;0.30;;;;;;;15.70;100.00;95496.09;5115094;28;20443;-59
2023/06/01 00:34:57;;;;;;;0.53;0.40;;;;;;;15.97;100.00;95498.75;5114868;28;20439;-59
2023/06/01 00:37:25;;;;;;;0.40;0.20;;;;;;;16.04;100.00;95495.69;5115366;28;20816;-59
2023/06/01 00:39:54;;;;;;;0.40;0.20;;;;;;;15.93;100.00;95468.38;5115242;28;20461;-59
2023/06/01 00:42:22;;;;;;;0.40;0.30;;;;;;;15.79;100.00;95491.63;5115143;28;20443;-59
2023/06/01 00:44:53;;;;;;;0.40;0.20;;;;;;;15.90;100.00;95490.34;5115316;28;20446;-59
2023/06/01 00:47:21;;;;;;;0.40;0.27;;;;;;;15.75;100.00;95496.00;5115137;28;20446;-59
2023/06/01 00:49:50;;;;;;;0.40;0.30;;;;;;;15.81;100.00;95492.16;5114628;28;20449;-59
2023/06/01 00:52:19;;;;;;;0.50;0.50;;;;;;;15.71;100.00;95493.13;5115115;28;20549;-59
2023/06/01 00:54:47;;;;;;;0.40;0.20;;;;;;;15.16;100.00;95500.25;5114818;28;20428;-60
2023/06/01 00:57:16;;;;;;;0.40;0.20;;;;;;;15.11;100.00;95503.00;5115174;28;20475;-59
2023/06/01 00:59:45;;;;;;;0.50;0.50;;;;;;;14.90;100.00;95431.59;5114457;28;20471;-59
2023/06/01 01:02:15;;;;;;;0.40;0.30;;;;;;;15.68;100.00;95506.28;5114816;28;20439;-59
2023/06/01 01:04:43;;;;;;;0.80;0.63;;;;;;;15.30;100.00;95512.84;5114368;28;20861;-59
2023/06/01 01:07:20;;;;;;;0.40;0.20;;;;;;;15.55;100.00;95513.22;5114351;28;20443;-59
2023/06/01 01:09:55;;;;;;;0.43;0.30;;;;;;;15.63;100.00;95517.88;5114647;28;20453;-59
2023/06/01 01:12:31;;;;;;;0.40;0.30;;;;;;;15.71;100.00;95511.81;5114286;28;20826;-59
2023/06/01 01:15:08;;;;;;;0.40;0.30;;;;;;;15.76;100.00;95511.72;5114614;28;20443;-59
2023/06/01 01:17:42;;;;;;;0.47;0.33;;;;;;;15.66;100.00;95521.84;5114254;28;20988;-59
2023/06/01 01:20:15;;;;;;;0.40;0.30;;;;;;;15.41;100.00;95509.69;5114117;28;20810;-59
2023/06/01 01:23:06;;;;;;;0.40;0.20;;;;;;;15.58;100.00;95515.31;5113989;28;20439;-59
2023/06/01 01:26:07;;;;;;;0.40;0.27;;;;;;;15.54;100.00;95516.16;5114495;28;20489;-59
2023/06/01 01:28:42;;;;;;;0.60;0.40;;;;;;;15.66;100.00;95511.16;5113879;28;20838;-57
2023/06/01 01:31:14;;;;;;;0.40;0.20;;;;;;;15.69;100.00;95510.53;5113932;28;20453;-57
2023/06/01 01:33:43;;;;;;;4.00;1.30;;;;;;;15.51;100.00;95509.53;5113980;28;20471;-58
2023/06/01 01:36:13;;;;;;;4.43;0.60;;;;;;;15.57;100.00;95510.25;5114154;28;20436;-58
2023/06/01 01:38:41;;;;;;;0.43;0.33;;;;;;;15.50;100.00;95507.16;5114000;28;20471;-58
2023/06/01 01:41:09;;;;;;;0.57;0.30;;;;;;;15.54;100.00;95505.47;5114321;28;20485;-58
2023/06/01 01:43:40;;;;;;;0.40;0.30;;;;;;;15.24;100.00;95504.91;5113852;28;20447;-58
2023/06/01 01:46:19;;;;;;;0.40;0.20;;;;;;;15.34;100.00;95508.47;5113296;28;20481;-58
2023/06/01 01:48:56;;;;;;;0.40;0.30;;;;;;;15.33;100.00;95513.03;5114152;28;20432;-59
2023/06/01 01:51:31;;;;;;;0.40;0.20;;;;;;;15.52;100.00;95505.00;5113425;28;20482;-58
2023/06/01 01:54:00;;;;;;;0.40;0.20;;;;;;;15.40;100.00;95491.28;5113729;28;20538;-58
2023/06/01 01:56:29;;;;;;;0.40;0.30;;;;;;;15.39;100.00;95508.41;5113606;28;20444;-58
2023/06/01 01:59:00;;;;;;;0.40;0.20;;;;;;;15.39;100.00;95501.19;5113653;28;20512;-58
2023/06/01 02:01:29;;;;;;;0.60;0.43;;;;;;;14.82;100.00;95507.75;5113531;28;20493;-59
2023/06/01 02:04:01;;;;;;;0.90;0.40;;;;;;;15.06;100.00;95513.75;5113105;28;20444;-59
2023/06/01 02:06:30;;;;;;;0.60;0.40;;;;;;;15.30;100.00;95523.53;5101153;28;20519;-59
2023/06/01 02:08:59;;;;;;;0.57;0.57;;;;;;;15.25;100.00;95513.72;5113145;28;20509;-59
2023/06/01 02:11:27;;;;;;;0.40;0.20;;;;;;;15.06;100.00;95519.09;5113570;28;20497;-59
2023/06/01 02:13:55;;;;;;;0.50;0.50;;;;;;;15.06;100.00;95513.75;5112982;28;20427;-59
2023/06/01 02:16:25;;;;;;;4.43;0.50;;;;;;;15.06;100.00;95513.75;5113249;28;20516;-59
2023/06/01 02:18:57;;;;;;;0.80;0.60;;;;;;;14.71;100.00;95510.84;5113424;27;20468;-59
2023/06/01 02:21:26;;;;;;;0.40;0.30;;;;;;;15.02;100.00;95507.44;5113319;28;20435;-59
2023/06/01 02:23:54;;;;;;;0.60;0.40;;;;;;;14.97;100.00;95502.19;5112924;28;20439;-59
2023/06/01 02:26:22;;;;;;;0.40;0.30;;;;;;;14.91;100.00;95518.53;5113683;28;20463;-59
2023/06/01 02:28:51;;;;;;;0.40;0.20;;;;;;;15.07;100.00;95527.91;5112517;28;20869;-59
2023/06/01 02:31:20;;;;;;;0.40;0.40;;;;;;;15.27;100.00;95520.34;5113268;28;20482;-59
2023/06/01 02:33:50;;;;;;;0.40;0.20;;;;;;;15.41;100.00;95524.91;5112402;27;20435;-59
2023/06/01 02:36:18;;;;;;;0.40;0.30;;;;;;;15.39;100.00;95529.75;5112935;28;20440;-59
2023/06/01 02:38:47;;;;;;;0.50;0.43;;;;;;;15.29;100.00;95525.38;5086559;28;20475;-59
2023/06/01 02:41:15;;;;;;;0.40;0.40;;;;;;;15.43;100.00;95528.09;5112643;28;20436;-58
2023/06/01 02:43:44;;;;;;;0.40;0.30;;;;;;;15.15;100.00;95530.69;5112405;28;20436;-59
2023/06/01 02:46:12;;;;;;;0.40;0.30;;;;;;;15.02;100.00;95528.00;5112393;28;20560;-59
2023/06/01 02:48:40;;;;;;;0.40;0.30;;;;;;;15.31;100.00;95533.91;5113081;28;20873;-59
2023/06/01 02:51:10;;;;;;;0.40;0.30;;;;;;;15.33;100.00;95536.28;5113081;28;20468;-59
2023/06/01 02:53:40;;;;;;;0.40;0.40;;;;;;;15.32;100.00;95540.03;5112969;28;20436;-59
2023/06/01 02:56:09;;;;;;;0.40;0.30;;;;;;;15.19;100.00;95534.38;5112020;28;20433;-59
2023/06/01 02:58:37;;;;;;;0.40;0.30;;;;;;;15.37;100.00;95534.59;5112844;28;20475;-59
2023/06/01 03:01:07;;;;;;;0.40;0.30;;;;;;;15.36;100.00;95539.16;5112085;28;20439;-59
2023/06/01 03:03:36;;;;;;;0.50;0.30;;;;;;;14.97;100.00;95544.09;5112218;28;20438;-59
2023/06/01 03:06:05;;;;;;;0.50;0.40;;;;;;;14.43;100.00;95544.59;5111466;28;20440;-59
2023/06/01 03:08:35;;;;;;;0.40;0.27;;;;;;;14.40;100.00;95545.16;5112649;28;20436;-59
2023/06/01 03:11:03;;;;;;;0.77;0.77;;;;;;;14.33;100.00;95547.41;5111875;28;20436;-59
2023/06/01 03:13:31;;;;;;;0.90;0.90;;;;;;;14.22;100.00;95530.69;5111836;28;20443;-59
2023/06/01 03:16:00;;;;;;;0.40;0.30;;;;;;;14.51;100.00;95549.28;5112141;28;20436;-59
2023/06/01 03:18:28;;;;;;;0.40;0.30;;;;;;;14.76;100.00;95548.94;5112150;28;20534;-59
2023/06/01 03:20:57;;;;;;;0.40;0.30;;;;;;;14.67;100.00;95548.00;5111834;28;20435;-59
2023/06/01 03:23:25;;;;;;;0.40;0.30;;;;;;;14.62;100.00;95556.84;5111864;28;20492;-59
2023/06/01 03:25:55;;;;;;;0.40;0.30;;;;;;;14.45;100.00;95561.91;5112131;28;20943;-59
2023/06/01 03:28:23;;;;;;;0.67;0.40;;;;;;;14.37;100.00;95556.44;5111296;28;20471;-59
2023/06/01 03:30:52;;;;;;;0.40;0.20;;;;;;;14.44;100.00;95556.88;5111750;28;20444;-59
2023/06/01 03:33:20;;;;;;;0.60;0.30;;;;;;;14.30;100.00;95559.41;5111820;28;20440;-58
2023/06/01 03:35:49;;;;;;;0.47;0.30;;;;;;;14.53;100.00;95563.13;5111717;28;20451;-59
2023/06/01 03:38:17;;;;;;;0.40;0.30;;;;;;;14.61;100.00;95557.94;5112109;28;20471;-58
2023/06/01 03:40:46;;;;;;;0.40;0.30;;;;;;;14.60;100.00;95556.34;5104212;28;20448;-58
2023/06/01 03:43:16;;;;;;;0.40;0.30;;;;;;;14.33;100.00;95560.72;5106613;28;20431;-58
2023/06/01 03:45:44;;;;;;;0.40;0.30;;;;;;;14.22;100.00;95557.38;5114175;28;20439;-58
2023/06/01 03:48:12;;;;;;;0.43;0.40;;;;;;;14.69;100.00;95559.19;5115885;28;20463;-57
2023/06/01 03:50:41;;;;;;;0.40;0.40;;;;;;;14.95;100.00;95551.59;5116414;28;20475;-57
2023/06/01 03:53:09;;;;;;;0.50;0.30;;;;;;;14.99;100.00;95564.06;5116196;28;20467;-56
2023/06/01 03:55:37;;;;;;;0.40;0.40;;;;;;;15.13;100.00;95564.91;5116256;28;20471;-58
2023/06/01 03:58:07;;;;;;;0.40;0.27;;;;;;;15.17;100.00;95565.91;5115905;28;20465;-58
2023/06/01 04:00:37;;;;;;;0.40;0.30;;;;;;;15.28;100.00;95566.53;5116138;28;20826;-59
2023/06/01 04:03:07;;;;;;;0.40;0.30;;;;;;;15.37;100.00;95566.66;5116012;28;20436;-58
2023/06/01 04:05:37;;;;;;;0.63;0.40;;;;;;;15.43;100.00;95570.84;5116287;28;20474;-58
2023/06/01 04:08:05;;;;;;;0.40;0.40;;;;;;;15.46;100.00;95572.94;5115859;28;20518;-58
2023/06/01 04:10:33;;;;;;;0.60;0.50;;;;;;;15.01;100.00;95564.56;5115890;28;20440;-58
2023/06/01 04:13:02;;;;;;;0.50;0.40;;;;;;;14.61;100.00;95565.16;5088934;28;20443;-59
2023/06/01 04:15:30;;;;;;;0.80;0.80;;;;;;;14.39;100.00;95567.59;5115180;28;20467;-58
2023/06/01 04:18:00;;;;;;;4.63;1.67;;;;;;;14.41;100.00;95570.75;5115628;28;20500;-58
2023/06/01 04:20:30;;;;;;;0.60;0.57;;;;;;;13.99;100.00;95566.97;5115321;28;20478;-58
2023/06/01 04:22:58;;;;;;;0.80;0.70;;;;;;;13.99;100.00;95576.81;5115393;28;20438;-59
2023/06/01 04:25:28;;;;;;;0.40;0.30;;;;;;;14.31;100.00;95577.03;5115380;28;20515;-58
2023/06/01 04:27:56;;;;;;;1.57;1.33;;;;;;;14.21;100.00;95585.13;5115006;28;20485;-60
2023/06/01 04:30:25;;;;;;;0.70;0.50;;;;;;;13.72;100.00;95565.94;5115035;28;20447;-59
2023/06/01 04:32:53;;;;;;;0.50;0.40;;;;;;;13.64;100.00;95591.31;5115099;28;20436;-59
2023/06/01 04:35:23;;;;;;;1.97;0.80;;;;;;;13.76;100.00;95597.06;5115017;28;20432;-59
2023/06/01 04:37:52;;;;;;;0.47;0.40;;;;;;;14.20;100.00;95602.19;5115348;28;20440;-59
2023/06/01 04:40:20;;;;;;;0.60;0.40;;;;;;;13.89;100.00;95604.38;5115040;28;20470;-59
2023/06/01 04:42:51;;;;;;;0.60;0.50;;;;;;;14.43;100.00;95609.41;5115500;28;20467;-59
2023/06/01 04:45:19;;;;;;;0.50;0.50;;;;;;;14.27;100.00;95605.28;5115208;28;20970;-59
2023/06/01 04:47:48;;;;;;;0.40;0.30;;;;;;;14.81;100.00;95601.44;5114900;28;20443;-59
2023/06/01 04:50:17;;;;;;;0.53;0.50;;;;;;;14.20;100.00;95527.53;5114972;28;20522;-59
2023/06/01 04:52:48;;;;;;;0.50;0.40;;;;;;;14.81;100.00;95591.56;5114452;28;20469;-59
2023/06/01 04:55:16;;;;;;;0.40;0.23;;;;;;;15.44;100.00;95610.59;5114798;28;20492;-59
2023/06/01 04:57:45;;;;;;;0.40;0.20;;;;;;;16.00;100.00;95602.44;5113323;28;20432;-59
2023/06/01 05:00:17;;;;;;;0.40;0.30;;;;;;;16.12;100.00;95600.06;5114206;28;20475;-60
2023/06/01 05:02:47;;;;;;;0.40;0.20;;;;;;;16.01;100.00;95606.72;5114542;28;20558;-60
2023/06/01 05:05:17;;;;;;;0.50;0.40;;;;;;;15.59;100.00;95602.38;5114694;28;20463;-60
2023/06/01 05:07:47;;;;;;;0.40;0.20;;;;;;;15.91;100.00;95595.41;5114628;28;20464;-60
2023/06/01 05:10:15;;;;;;;4.23;0.30;;;;;;;15.98;100.00;95604.63;5114636;28;20505;-61
2023/06/01 05:12:44;;;;;;;0.60;0.40;;;;;;;16.15;100.00;95598.69;5109170;28;20439;-60
2023/06/01 05:15:13;;;;;;;2.20;0.80;;;;;;;15.94;100.00;95550.13;5107085;28;20527;-60
2023/06/01 05:17:41;;;;;;;0.40;0.30;;;;;;;16.72;100.00;95603.41;5114472;28;20472;-60
2023/06/01 05:20:11;;;;;;;0.40;0.40;;;;;;;16.79;100.00;95597.66;5114603;28;21065;-61
2023/06/01 05:22:40;;;;;;;0.57;0.40;;;;;;;16.76;100.00;95600.94;5088092;28;20442;-60
2023/06/01 05:25:10;;;;;;;0.50;0.40;;;;;;;16.62;100.00;95600.19;5114506;27;20967;-61
2023/06/01 05:27:39;;;;;;;0.60;0.40;;;;;;;16.79;100.00;95603.81;5114180;28;20497;-61
2023/06/01 05:30:08;;;;;;;1.30;0.47;;;;;;;16.81;100.00;95601.63;5114694;28;20891;-61
2023/06/01 05:32:36;;;;;;;0.80;0.40;;;;;;;16.99;100.00;95598.00;5116890;28;20509;-62
2023/06/01 05:35:06;;;;;;;0.93;0.93;;;;;;;16.41;100.00;95607.78;5114091;28;20447;-61
2023/06/01 05:37:34;;;;;;;0.90;0.90;;;;;;;16.03;100.00;95606.41;5114155;28;20428;-62
2023/06/01 05:40:04;;;;;;;2.10;1.53;;;;;;;16.03;100.00;95596.50;5113772;28;20884;-62
2023/06/01 05:42:33;;;;;;;0.60;0.60;;;;;;;16.89;100.00;95600.13;5114528;28;20600;-62
2023/06/01 05:45:02;;;;;;;1.70;1.03;;;;;;;16.81;100.00;95598.94;5113598;28;20993;-62
2023/06/01 05:47:31;;;;;;;1.00;1.00;;;;;;;16.69;100.00;95597.88;5114020;28;20435;-63
2023/06/01 05:49:59;;;;;;;1.73;1.63;;;;;;;17.10;100.00;95593.22;5113388;28;20466;-62
2023/06/01 05:52:27;;;;;;;0.50;0.30;;;;;;;17.27;100.00;95590.66;5114374;28;20432;-63
2023/06/01 05:54:56;;;;;;;0.50;0.50;;;;;;;17.88;100.00;95591.84;5113160;28;20439;-63
2023/06/01 05:57:24;;;;;;;0.50;0.40;;;;;;;18.07;100.00;95584.34;5113770;28;20476;-63
2023/06/01 05:59:54;;;;;;;0.50;0.43;;;;;;;18.07;100.00;95562.91;5113478;28;20496;-63
2023/06/01 06:02:23;;;;;;;0.50;0.33;;;;;;;18.62;100.00;95576.69;5113887;28;20488;-64
2023/06/01 06:04:51;;;;;;;0.40;0.30;;;;;;;18.78;100.00;95565.16;5113370;28;20428;-64
2023/06/01 06:07:19;;;;;;;0.50;0.40;;;;;;;18.55;100.00;95573.66;5099749;28;20439;-65
2023/06/01 06:09:47;;;;;;;0.60;0.60;;;;;;;18.99;100.00;95581.47;5112580;28;20428;-64
2023/06/01 06:12:16;;;;;;;0.57;0.40;;;;;;;19.44;100.00;95573.88;5113079;28;20493;-64
2023/06/01 06:14:45;;;;;;;0.80;0.80;;;;;;;18.77;100.00;95574.31;5113611;28;20458;-64
2023/06/01 06:17:15;;;;;;;0.73;0.50;;;;;;;18.78;100.00;95562.47;5113265;28;20841;-64
2023/06/01 06:19:44;;;;;;;0.40;0.30;;;;;;;19.17;100.00;95563.44;5113346;28;20484;-65
2023/06/01 06:22:12;;;;;;;1.43;1.07;;;;;;;19.35;100.00;95575.75;5112818;28;20488;-64
2023/06/01 06:24:41;;;;;;;0.90;0.67;;;;;;;18.97;100.00;95562.19;5113254;28;20440;-65
2023/06/01 06:27:10;;;;;;;0.50;0.40;;;;;;;19.09;100.00;95567.72;5113391;28;20436;-66
2023/06/01 06:29:41;;;;;;;0.97;0.50;;;;;;;19.29;100.00;95566.28;5112931;28;20474;-66
2023/06/01 06:32:10;;;;;;;0.53;0.50;;;;;;;19.92;100.00;95552.88;5112932;28;20435;-54
2023/06/01 06:34:40;;;;;;;1.07;1.07;;;;;;;20.18;100.00;95558.16;5113476;28;20546;-56
2023/06/01 06:37:10;;;;;;;1.20;0.90;;;;;;;20.34;100.00;95553.06;5112051;28;20465;-50
2023/06/01 06:39:39;;;;;;;0.83;0.83;;;;;;;20.75;95.53;95545.81;5112691;28;20440;-59
2023/06/01 06:42:08;;;;;;;0.53;0.53;;;;;;;20.77;95.97;95550.88;5112645;28;20902;-63
2023/06/01 06:44:36;;;;;;;0.60;0.50;;;;;;;21.57;92.42;95544.19;5099302;28;20787;-66
2023/06/01 06:47:05;;;;;;;2.80;2.60;;;;;;;21.02;87.20;95541.81;5112853;28;20444;-64
2023/06/01 06:49:33;;;;;;;3.43;1.77;;;;;;;21.07;87.52;95540.84;5112969;27;20440;-63
2023/06/01 06:52:03;;;;;;;1.03;0.93;;;;;;;20.88;87.95;95538.59;5112705;28;20988;-63
2023/06/01 06:54:32;;;;;;;0.83;0.83;;;;;;;21.71;86.23;95531.19;5112121;28;20444;-63
2023/06/01 06:57:00;;;;;;;7.20;2.30;;;;;;;21.50;82.66;95530.47;5112726;28;20474;-65
2023/06/01 06:59:29;;;;;;;0.77;0.77;;;;;;;22.11;83.57;95528.69;5112542;28;20443;-63
2023/06/01 07:01:57;;;;;;;0.97;0.97;;;;;;;21.74;83.05;95527.81;5102009;28;20894;-62
2023/06/01 07:04:25;;;;;;;1.30;1.20;;;;;;;22.01;80.79;95531.84;5110328;28;20455;-62
2023/06/01 07:06:54;;;;;;;0.87;0.87;;;;;;;21.74;80.75;95524.31;5112627;28;20804;-62
2023/06/01 07:09:24;;;;;;;0.97;0.97;;;;;;;22.13;80.63;95521.84;5112327;28;20431;-63
2023/06/01 07:11:52;;;;;;;1.70;0.90;;;;;;;22.12;79.63;95517.56;5112841;28;20447;-63
2023/06/01 07:14:20;;;;;;;3.30;2.13;;;;;;;22.04;78.68;95514.94;5112388;28;20439;-63
2023/06/01 07:16:49;;;;;;;0.50;0.50;;;;;;;22.43;76.29;95519.69;5112148;28;20443;-64
2023/06/01 07:19:17;;;;;;;1.87;1.33;;;;;;;22.86;75.39;95513.66;5112700;28;20876;-64
2023/06/01 07:21:46;;;;;;;0.57;0.50;;;;;;;23.56;75.35;95514.09;5112324;28;20556;-63
2023/06/01 07:24:14;;;;;;;1.20;0.90;;;;;;;23.17;71.96;95518.41;5111791;28;20447;-62
2023/06/01 07:26:44;;;;;;;0.83;0.73;;;;;;;23.27;73.43;95515.22;5112004;28;20826;-62
2023/06/01 07:29:14;;;;;;;0.50;0.50;;;;;;;23.87;75.37;95508.72;5111705;28;20471;-61
2023/06/01 07:31:43;;;;;;;0.60;0.50;;;;;;;24.46;71.41;95511.34;5111996;28;20444;-59
2023/06/01 07:34:12;;;;;;;0.57;0.40;;;;;;;24.30;69.19;95511.38;5112646;28;20439;-60
2023/06/01 07:36:41;;;;;;;4.90;1.23;;;;;;;23.80;68.66;95509.34;5112065;28;20432;-60
2023/06/01 07:39:10;;;;;;;0.80;0.70;;;;;;;24.59;67.31;95502.72;5112343;28;20554;-60
2023/06/01 07:41:39;;;;;;;0.67;0.67;;;;;;;24.29;68.73;95492.72;5111523;28;20544;-59
2023/06/01 07:44:09;;;;;;;0.80;0.80;;;;;;;24.26;67.32;95501.59;5111781;28;20435;-59
2023/06/01 07:46:37;;;;;;;0.50;0.50;;;;;;;25.24;66.93;95497.56;5112104;28;20436;-59
2023/06/01 07:49:07;;;;;;;1.00;0.97;;;;;;;24.68;65.29;95491.69;5112171;28;20941;-59
2023/06/01 07:51:36;;;;;;;1.77;0.43;;;;;;;24.86;66.83;95489.41;5112152;28;20974;-60
2023/06/01 07:54:04;;;;;;;6.13;2.23;;;;;;;24.99;66.64;95480.78;5112008;28;20443;-60
2023/06/01 07:56:32;;;;;;;0.77;0.77;;;;;;;24.81;66.73;95479.63;5111574;28;20877;-59
2023/06/01 07:59:01;;;;;;;1.27;0.93;;;;;;;24.23;66.07;95480.63;5112322;28;20879;-60
2023/06/01 08:01:30;;;;;;;2.10;1.27;;;;;;;24.17;66.90;95480.09;5085141;28;20505;-60
2023/06/01 08:03:59;;;;;;;11.80;4.47;;;;;;;24.71;66.24;95476.66;5111511;28;20471;-60
2023/06/01 08:06:28;;;;;;;0.90;0.60;;;;;;;25.86;69.84;95471.94;5111897;28;20504;-61
2023/06/01 08:08:56;;;;;;;1.27;0.70;;;;;;;25.32;64.85;95476.78;5111482;28;20440;-62
2023/06/01 08:11:25;;;;;;;0.50;0.40;;;;;;;25.54;66.38;95468.69;5111201;28;20800;-61
2023/06/01 08:13:54;;;;;;;1.40;0.93;;;;;;;25.96;67.79;95470.59;5111715;28;20772;-60
2023/06/01 08:16:22;;;;;;;0.87;0.87;;;;;;;26.31;62.14;95463.03;5111563;28;20436;-60
2023/06/01 08:18:55;;;;;;;0.50;0.50;;;;;;;26.12;64.10;95466.59;5111436;28;21254;-61
2023/06/01 08:21:24;;;;;;;0.57;0.57;;;;;;;26.72;61.52;95466.69;5111577;28;20535;-60
2023/06/01 08:23:55;;;;;;;0.50;0.40;;;;;;;27.55;63.30;95455.28;5111553;28;20443;-60
2023/06/01 08:26:25;;;;;;;0.60;0.57;;;;;;;27.07;55.71;95443.47;5111699;28;20435;-61
2023/06/01 08:28:53;;;;;;;0.60;0.53;;;;;;;27.61;59.19;95453.81;5111163;28;20502;-61
2023/06/01 08:31:23;;;;;;;1.30;1.20;;;;;;;26.91;56.21;95453.00;5111532;28;20435;-60
2023/06/01 08:33:55;;;;;;;0.70;0.60;;;;;;;26.94;56.89;95446.81;5115206;28;20471;-61
2023/06/01 08:36:23;;;;;;;2.30;2.00;;;;;;;27.35;56.91;95456.59;5115310;28;20438;-60
2023/06/01 08:38:55;;;;;;;0.50;0.30;;;;;;;27.73;55.59;95450.00;5115273;28;20427;-60
2023/06/01 08:41:32;;;;;;;1.10;1.00;;;;;;;27.24;53.65;95449.50;5115051;28;20474;-61
2023/06/01 08:44:04;;;;;;;0.93;0.47;;;;;;;27.50;52.87;95439.28;5114901;28;20435;-61
2023/06/01 08:46:34;;;;;;;0.80;0.80;;;;;;;26.84;54.06;95431.91;5111351;28;20433;-61
2023/06/01 08:49:06;;;;;;;0.70;0.40;;;;;;;27.61;55.85;95440.19;5105796;28;20432;-61
2023/06/01 08:51:37;;;;;;;0.40;0.40;;;;;;;28.64;54.60;95436.34;5115152;28;20435;-63
2023/06/01 08:54:09;;;;;;;0.53;0.53;;;;;;;28.69;53.63;95425.06;5115396;28;20496;-62
2023/06/01 08:56:41;;;;;;;0.53;0.47;;;;;;;29.50;52.30;95427.31;5088178;28;20428;-61
2023/06/01 08:59:13;;;;;;;0.80;0.80;;;;;;;28.94;51.02;95417.00;5114258;28;20432;-61
2023/06/01 09:01:42;;;;;;;0.67;0.50;;;;;;;29.67;53.15;95412.94;5114369;28;20523;-60
2023/06/01 09:04:13;;;;;;;0.80;0.80;;;;;;;28.65;51.86;95405.19;5114188;28;20468;-62
2023/06/01 09:06:43;;;;;;;1.43;0.90;;;;;;;28.40;53.46;95412.41;5114494;28;20920;-62
2023/06/01 09:09:14;;;;;;;5.30;1.60;;;;;;;27.62;51.83;95419.97;5114110;28;20444;-62
2023/06/01 09:11:42;;;;;;;0.50;0.50;;;;;;;28.69;49.62;95408.69;5114490;28;21020;-62
2023/06/01 09:14:25;;;;;;;0.40;0.30;;;;;;;28.03;53.54;95409.06;5114234;28;20439;-62
2023/06/01 09:16:53;;;;;;;0.67;0.40;;;;;;;28.63;50.69;95410.25;5113911;28;20958;-62
2023/06/01 09:19:23;;;;;;;0.40;0.30;;;;;;;29.32;50.21;95401.94;5114322;28;20438;-61
2023/06/01 09:21:58;;;;;;;0.50;0.50;;;;;;;28.84;49.30;95393.94;5113963;28;20982;-61
2023/06/01 09:24:27;;;;;;;0.57;0.40;;;;;;;29.63;47.82;95381.28;5114420;28;20445;-59
2023/06/01 09:27:00;;;;;;;0.60;0.60;;;;;;;29.24;49.61;95389.44;5114358;27;20446;-59
2023/06/01 09:29:31;;;;;;;0.40;0.30;;;;;;;29.67;46.28;95360.25;5113760;28;20550;-60
2023/06/01 09:32:01;;;;;;;5.93;0.80;;;;;;;29.99;47.51;95386.41;5113931;28;20985;-60
2023/06/01 09:34:31;;;;;;;1.63;0.70;;;;;;;29.70;44.57;95382.09;5113966;28;20534;-60
2023/06/01 09:37:07;;;;;;;0.90;0.90;;;;;;;28.39;43.43;95359.03;5113873;28;20471;-60
2023/06/01 09:39:35;;;;;;;1.43;1.33;;;;;;;29.78;43.31;95382.91;5114107;28;20438;-60
2023/06/01 09:42:04;;;;;;;0.40;0.40;;;;;;;30.03;44.95;95378.22;5113414;28;21032;-61
2023/06/01 09:44:34;;;;;;;0.73;0.73;;;;;;;29.66;44.36;95378.56;5113517;28;20435;-61
2023/06/01 09:47:04;;;;;;;0.67;0.67;;;;;;;29.90;45.99;95366.91;5113847;28;20432;-75
2023/06/01 09:49:36;;;;;;;0.60;0.60;;;;;;;29.84;41.66;95378.59;5114084;28;20515;-76
2023/06/01 09:52:14;;;;;;;1.03;0.93;;;;;;;30.49;39.96;95359.78;5114379;28;20446;-72
2023/06/01 09:54:45;;;;;;;0.50;0.43;;;;;;;30.92;42.40;95354.16;5119866;28;20431;-71
2023/06/01 09:57:20;;;;;;;0.90;0.90;;;;;;;30.11;41.50;95352.41;5127083;28;20439;-74
2023/06/01 09:59:48;;;;;;;0.40;0.40;;;;;;;29.51;40.46;95295.06;5115609;28;20435;-76
2023/06/01 10:02:18;;;;;;;0.40;0.33;;;;;;;30.03;39.76;95343.44;5100717;28;20499;-71
2023/06/01 10:04:50;;;;;;;1.23;1.13;;;;;;;29.38;40.36;95313.00;5100628;28;20439;-71
2023/06/01 10:07:20;;;;;;;0.50;0.50;;;;;;;29.41;40.60;95321.22;5113479;28;20435;-74
2023/06/01 10:09:52;;;;;;;1.10;1.00;;;;;;;30.72;41.47;95334.69;5113622;28;20881;-70
2023/06/01 10:12:20;;;;;;;1.00;0.60;;;;;;;30.61;42.11;95334.72;5112821;28;20500;-71
2023/06/01 10:14:50;;;;;;;1.07;0.53;;;;;;;30.83;37.36;95332.69;5112942;28;20439;-72
2023/06/01 10:17:19;;;;;;;0.43;0.30;;;;;;;31.16;39.23;95329.41;5112714;28;20432;-72
2023/06/01 10:19:49;;;;;;;0.40;0.33;;;;;;;30.66;38.28;95297.97;5113251;28;20867;-72
2023/06/01 10:22:18;;;;;;;1.37;1.37;;;;;;;29.84;36.96;95322.00;5112810;28;20430;-72
2023/06/01 10:24:46;;;;;;;1.10;0.70;;;;;;;29.78;37.26;95315.38;5112981;28;20435;-74
2023/06/01 10:27:23;;;;;;;1.23;0.50;;;;;;;30.20;36.85;95306.31;5112744;28;20431;-59
2023/06/01 10:29:53;;;;;;;1.07;0.97;;;;;;;29.79;37.68;95303.28;5112912;28;20462;-61
2023/06/01 10:32:44;;;;;;;0.47;0.40;;;;;;;30.85;39.62;95292.00;5112805;28;20937;-58
2023/06/01 10:36:03;;;;;;;0.60;0.60;;;;;;;29.87;37.86;95285.69;5112623;28;20518;-58
2023/06/01 10:38:33;;;;;;;0.40;0.40;;;;;;;30.72;39.81;95288.94;5112516;28;20519;-58
2023/06/01 10:41:28;;;;;;;0.40;0.30;;;;;;;31.78;36.81;95280.00;5112860;28;20484;-58
2023/06/01 10:43:56;;;;;;;2.60;0.70;;;;;;;30.60;34.46;95285.88;5089458;28;20545;-58
2023/06/01 10:46:40;;;;;;;1.07;1.07;;;;;;;30.85;34.81;95247.44;5113194;28;20441;-58
2023/06/01 10:49:12;;;;;;;0.40;0.40;;;;;;;30.08;34.95;95280.16;5112651;28;20442;-58
2023/06/01 10:51:41;;;;;;;0.60;0.40;;;;;;;29.52;36.12;95269.31;5112466;28;20474;-58
2023/06/01 10:54:35;;;;;;;1.23;0.80;;;;;;;30.46;36.71;95269.53;5112264;28;20443;-58
2023/06/01 10:57:22;;;;;;;0.40;0.30;;;;;;;31.04;36.67;95260.66;5087048;28;20950;-58
2023/06/01 11:00:12;;;;;;;0.50;0.37;;;;;;;30.71;35.41;95256.53;5112454;28;20446;-58
2023/06/01 11:02:56;;;;;;;0.70;0.70;;;;;;;30.24;36.18;95243.41;5111829;28;20546;-58
2023/06/01 11:05:46;;;;;;;0.60;0.60;;;;;;;30.43;35.60;95242.97;5112740;28;20466;-58
2023/06/01 11:08:53;;;;;;;0.53;0.33;;;;;;;29.45;35.90;95248.25;5090301;28;20869;-58
2023/06/01 11:11:59;;;;;;;0.50;0.50;;;;;;;30.16;34.90;95250.84;5112930;28;20929;-57
2023/06/01 11:14:30;;;;;;;0.40;0.40;;;;;;;30.94;35.25;95232.13;5085729;28;20530;-57
2023/06/01 11:17:27;;;;;;;0.30;0.30;;;;;;;30.31;34.77;95227.00;5111252;28;20439;-57
2023/06/01 11:20:00;;;;;;;0.70;0.50;;;;;;;30.71;35.45;95226.41;5104643;28;20427;-58
2023/06/01 11:22:36;;;;;;;0.67;0.60;;;;;;;30.91;36.67;95223.97;5111909;28;20434;-57
2023/06/01 11:25:07;;;;;;;0.47;0.47;;;;;;;30.62;35.57;95212.38;5112495;28;20439;-57
2023/06/01 11:27:43;;;;;;;10.20;1.13;;;;;;;30.98;34.18;95216.47;5112711;28;20795;-57
2023/06/01 11:30:12;;;;;;;0.40;0.30;;;;;;;31.85;34.34;95213.41;5112228;28;20439;-57
2023/06/01 11:32:42;;;;;;;0.67;0.67;;;;;;;32.27;35.26;95207.44;5112417;28;20811;-59
2023/06/01 11:35:19;;;;;;;0.40;0.30;;;;;;;32.22;33.89;95194.19;5111545;28;20446;-57
2023/06/01 11:37:49;;;;;;;0.77;0.77;;;;;;;32.00;33.29;95196.38;5112150;28;20923;-58
2023/06/01 11:40:17;;;;;;;0.43;0.40;;;;;;;30.64;35.75;95185.41;5111752;28;20427;-58
2023/06/01 11:42:47;;;;;;;0.83;0.83;;;;;;;30.89;36.24;95190.72;5111675;28;20793;-57
2023/06/01 11:45:17;;;;;;;6.17;0.83;;;;;;;30.67;37.28;95185.38;5111995;28;20434;-57